createdAt,value
2019-01-19T00:00:05.212Z,-5.60
2019-01-19T00:01:04.566Z,-5.60
2019-01-19T00:02:04.890Z,-5.60
2019-01-19T00:03:05.170Z,-5.60
2019-01-19T00:04:05.377Z,-5.60
2019-01-19T00:05:10.324Z,-5.60
2019-01-19T00:06:04.345Z,-5.60
2019-01-19T00:07:04.755Z,-5.60
2019-01-19T00:08:05.156Z,-5.60
2019-01-19T00:09:04.302Z,-5.60
2019-01-19T00:10:04.464Z,-5.60
2019-01-19T00:11:04.698Z,-5.60
2019-01-19T00:12:04.921Z,-5.60
2019-01-19T00:13:04.534Z,-5.60
2019-01-19T00:14:04.983Z,-5.60
2019-01-19T00:15:05.344Z,-5.60
2019-01-19T00:16:04.602Z,-5.60
2019-01-19T00:17:05.323Z,-5.60
2019-01-19T00:18:04.767Z,-5.60
2019-01-19T00:19:05.399Z,-5.60
2019-01-19T00:20:04.507Z,-5.60
2019-01-19T00:21:05.284Z,-5.60
2019-01-19T00:22:04.552Z,-5.60
2019-01-19T00:23:04.703Z,-5.60
2019-01-19T00:24:05.018Z,-5.60
2019-01-19T00:25:04.661Z,-5.60
2019-01-19T00:26:04.531Z,-5.60
2019-01-19T00:27:05.038Z,-5.60
2019-01-19T00:28:04.562Z,-5.60
2019-01-19T00:29:05.477Z,-5.70
2019-01-19T00:30:04.693Z,-5.70
2019-01-19T00:31:04.934Z,-5.70
2019-01-19T00:32:04.595Z,-5.70
2019-01-19T00:33:04.818Z,-5.70
2019-01-19T00:34:04.608Z,-5.70
2019-01-19T00:35:05.306Z,-5.70
2019-01-19T00:36:05.394Z,-5.70
2019-01-19T00:37:04.369Z,-5.70
2019-01-19T00:38:05.154Z,-5.70
2019-01-19T00:39:04.966Z,-5.70
2019-01-19T00:40:05.233Z,-5.70
2019-01-19T00:41:05.229Z,-5.70
2019-01-19T00:42:04.597Z,-5.70
2019-01-19T00:43:05.003Z,-5.70
2019-01-19T00:44:05.460Z,-5.70
2019-01-19T00:45:04.782Z,-5.70
2019-01-19T00:46:05.327Z,-5.70
2019-01-19T00:47:05.002Z,-5.70
2019-01-19T00:48:04.933Z,-5.70
2019-01-19T00:49:05.257Z,-5.70
2019-01-19T00:50:04.471Z,-5.70
2019-01-19T00:51:04.836Z,-5.70
2019-01-19T00:52:05.012Z,-5.70
2019-01-19T00:53:04.486Z,-5.70
2019-01-19T00:54:04.336Z,-5.70
2019-01-19T00:55:04.698Z,-5.70
2019-01-19T00:56:05.171Z,-5.80
2019-01-19T00:57:04.531Z,-5.80
2019-01-19T00:58:04.603Z,-5.80
2019-01-19T00:59:04.695Z,-5.80
2019-01-19T01:00:05.156Z,-5.80
2019-01-19T01:01:05.462Z,-5.80
2019-01-19T01:02:04.512Z,-5.80
2019-01-19T01:03:04.735Z,-5.80
2019-01-19T01:04:10.000Z,-5.80
2019-01-19T01:05:04.590Z,-5.80
2019-01-19T01:06:04.861Z,-5.80
2019-01-19T01:07:04.994Z,-5.80
2019-01-19T01:08:04.298Z,-5.80
2019-01-19T01:09:05.231Z,-5.80
2019-01-19T01:10:04.558Z,-5.90
2019-01-19T01:11:04.609Z,-5.90
2019-01-19T01:12:04.584Z,-5.90
2019-01-19T01:13:04.591Z,-5.90
2019-01-19T01:14:05.067Z,-5.90
2019-01-19T01:15:04.577Z,-5.90
2019-01-19T01:16:04.839Z,-5.90
2019-01-19T01:17:05.169Z,-5.90
2019-01-19T01:18:04.825Z,-5.90
2019-01-19T01:19:05.250Z,-5.90
2019-01-19T01:20:04.834Z,-5.90
2019-01-19T01:21:05.134Z,-5.90
2019-01-19T01:22:04.718Z,-5.90
2019-01-19T01:23:04.717Z,-5.90
2019-01-19T01:24:04.399Z,-5.90
2019-01-19T01:25:05.223Z,-5.90
2019-01-19T01:26:05.042Z,-5.90
2019-01-19T01:27:05.289Z,-5.90
2019-01-19T01:28:04.835Z,-5.90
2019-01-19T01:29:04.984Z,-5.90
2019-01-19T01:30:04.416Z,-5.90
2019-01-19T01:31:05.093Z,-5.90
2019-01-19T01:32:04.387Z,-5.90
2019-01-19T01:33:05.154Z,-5.90
2019-01-19T01:34:05.150Z,-5.90
2019-01-19T01:35:05.334Z,-5.90
2019-01-19T01:36:04.951Z,-5.90
2019-01-19T01:37:05.377Z,-5.90
2019-01-19T01:38:09.874Z,-5.90
2019-01-19T01:39:04.392Z,-5.90
2019-01-19T01:40:04.733Z,-5.90
2019-01-19T01:41:05.300Z,-5.90
2019-01-19T01:42:04.729Z,-5.90
2019-01-19T01:43:04.929Z,-5.90
2019-01-19T01:44:04.295Z,-5.90
2019-01-19T01:45:04.774Z,-5.90
2019-01-19T01:46:05.069Z,-5.90
2019-01-19T01:47:04.619Z,-5.90
2019-01-19T01:48:04.588Z,-5.90
2019-01-19T01:49:04.480Z,-5.90
2019-01-19T01:50:05.402Z,-5.90
2019-01-19T01:51:04.641Z,-5.90
2019-01-19T01:52:04.583Z,-5.90
2019-01-19T01:53:04.389Z,-5.90
2019-01-19T01:54:04.523Z,-5.90
2019-01-19T01:55:05.050Z,-5.90
2019-01-19T01:56:04.667Z,-5.90
2019-01-19T01:57:04.397Z,-5.90
2019-01-19T01:58:04.846Z,-5.90
2019-01-19T01:59:05.147Z,-5.90
2019-01-19T02:00:04.532Z,-6.00
2019-01-19T02:01:04.715Z,-6.00
2019-01-19T02:02:05.406Z,-6.00
2019-01-19T02:03:04.469Z,-6.00
2019-01-19T02:04:04.583Z,-6.00
2019-01-19T02:05:04.424Z,-6.00
2019-01-19T02:06:05.107Z,-6.00
2019-01-19T02:07:04.293Z,-6.00
2019-01-19T02:08:05.142Z,-6.00
2019-01-19T02:09:04.768Z,-6.00
2019-01-19T02:10:04.584Z,-6.00
2019-01-19T02:11:04.795Z,-6.00
2019-01-19T02:12:05.453Z,-6.00
2019-01-19T02:13:04.987Z,-6.00
2019-01-19T02:14:05.519Z,-6.00
2019-01-19T02:15:05.079Z,-6.00
2019-01-19T02:16:04.939Z,-6.00
2019-01-19T02:17:05.383Z,-6.00
2019-01-19T02:18:04.844Z,-6.00
2019-01-19T02:19:05.362Z,-6.00
2019-01-19T02:20:04.744Z,-6.00
2019-01-19T02:21:05.397Z,-6.00
2019-01-19T02:22:04.364Z,-6.00
2019-01-19T02:23:04.791Z,-6.00
2019-01-19T02:24:05.413Z,-6.00
2019-01-19T02:25:04.994Z,-6.00
2019-01-19T02:26:05.376Z,-6.00
2019-01-19T02:27:04.855Z,-6.00
2019-01-19T02:28:05.063Z,-6.00
2019-01-19T02:29:10.355Z,-6.00
2019-01-19T02:30:05.134Z,-6.00
2019-01-19T02:31:04.323Z,-6.00
2019-01-19T02:32:05.316Z,-6.00
2019-01-19T02:33:05.119Z,-6.00
2019-01-19T02:34:05.198Z,-6.00
2019-01-19T02:35:04.425Z,-6.00
2019-01-19T02:36:05.136Z,-6.00
2019-01-19T02:37:04.822Z,-6.10
2019-01-19T02:38:04.591Z,-6.00
2019-01-19T02:39:05.160Z,-6.00
2019-01-19T02:40:04.712Z,-6.00
2019-01-19T02:41:04.588Z,-6.00
2019-01-19T02:42:04.716Z,-6.00
2019-01-19T02:43:04.699Z,-6.00
2019-01-19T02:44:04.821Z,-6.10
2019-01-19T02:45:04.954Z,-6.00
2019-01-19T02:46:04.381Z,-6.10
2019-01-19T02:47:05.195Z,-6.10
2019-01-19T02:48:05.351Z,-6.10
2019-01-19T02:49:09.630Z,-6.10
2019-01-19T02:50:05.186Z,-6.10
2019-01-19T02:51:05.402Z,-6.10
2019-01-19T02:52:04.555Z,-6.10
2019-01-19T02:53:04.956Z,-6.10
2019-01-19T02:54:05.150Z,-6.20
2019-01-19T02:55:06.200Z,-6.20
2019-01-19T02:56:05.130Z,-6.20
2019-01-19T02:57:05.425Z,-6.20
2019-01-19T02:58:05.246Z,-6.20
2019-01-19T02:59:04.630Z,-6.20
2019-01-19T03:00:04.913Z,-6.20
2019-01-19T03:01:05.043Z,-6.20
2019-01-19T03:02:04.382Z,-6.20
2019-01-19T03:03:04.526Z,-6.20
2019-01-19T03:04:05.275Z,-6.20
2019-01-19T03:05:04.653Z,-6.20
2019-01-19T03:06:05.081Z,-6.20
2019-01-19T03:07:04.943Z,-6.20
2019-01-19T03:08:05.126Z,-6.20
2019-01-19T03:09:05.224Z,-6.20
2019-01-19T03:10:05.034Z,-6.20
2019-01-19T03:11:05.415Z,-6.30
2019-01-19T03:12:04.915Z,-6.30
2019-01-19T03:13:05.432Z,-6.30
2019-01-19T03:14:04.608Z,-6.20
2019-01-19T03:15:04.790Z,-6.30
2019-01-19T03:16:05.329Z,-6.20
2019-01-19T03:17:05.109Z,-6.30
2019-01-19T03:18:04.799Z,-6.30
2019-01-19T03:19:05.112Z,-6.30
2019-01-19T03:20:04.471Z,-6.30
2019-01-19T03:21:05.334Z,-6.20
2019-01-19T03:22:04.263Z,-6.20
2019-01-19T03:23:04.608Z,-6.20
2019-01-19T03:24:04.523Z,-6.30
2019-01-19T03:25:04.700Z,-6.20
2019-01-19T03:26:04.958Z,-6.20
2019-01-19T03:27:04.770Z,-6.20
2019-01-19T03:28:04.305Z,-6.30
2019-01-19T03:29:09.698Z,-6.30
2019-01-19T03:30:05.254Z,-6.30
2019-01-19T03:31:04.596Z,-6.30
2019-01-19T03:32:05.055Z,-6.30
2019-01-19T03:33:05.116Z,-6.30
2019-01-19T03:34:04.385Z,-6.30
2019-01-19T03:35:05.131Z,-6.30
2019-01-19T03:36:04.997Z,-6.30
2019-01-19T03:37:04.228Z,-6.40
2019-01-19T03:38:04.540Z,-6.40
2019-01-19T03:39:04.718Z,-6.40
2019-01-19T03:40:04.774Z,-6.40
2019-01-19T03:41:05.242Z,-6.40
2019-01-19T03:42:04.862Z,-6.40
2019-01-19T03:43:05.003Z,-6.40
2019-01-19T03:44:04.337Z,-6.40
2019-01-19T03:45:04.997Z,-6.40
2019-01-19T03:46:05.371Z,-6.40
2019-01-19T03:47:04.767Z,-6.40
2019-01-19T03:48:05.289Z,-6.40
2019-01-19T03:49:04.329Z,-6.40
2019-01-19T03:50:04.881Z,-6.40
2019-01-19T03:51:04.333Z,-6.40
2019-01-19T03:52:04.982Z,-6.40
2019-01-19T03:53:05.035Z,-6.40
2019-01-19T03:54:04.882Z,-6.40
2019-01-19T03:55:05.008Z,-6.40
2019-01-19T03:56:04.462Z,-6.40
2019-01-19T03:57:04.639Z,-6.40
2019-01-19T03:58:05.402Z,-6.40
2019-01-19T03:59:04.543Z,-6.40
2019-01-19T04:00:04.637Z,-6.40
2019-01-19T04:01:05.291Z,-6.40
2019-01-19T04:02:04.863Z,-6.40
2019-01-19T04:03:05.353Z,-6.40
2019-01-19T04:04:04.969Z,-6.40
2019-01-19T04:05:04.945Z,-6.40
2019-01-19T04:06:12.405Z,-6.40
2019-01-19T04:07:04.630Z,-6.50
2019-01-19T04:08:04.506Z,-6.50
2019-01-19T04:09:05.034Z,-6.50
2019-01-19T04:10:04.876Z,-6.50
2019-01-19T04:11:05.198Z,-6.50
2019-01-19T04:12:05.236Z,-6.50
2019-01-19T04:13:04.536Z,-6.50
2019-01-19T04:14:04.820Z,-6.50
2019-01-19T04:15:04.361Z,-6.50
2019-01-19T04:16:05.211Z,-6.50
2019-01-19T04:17:04.918Z,-6.50
2019-01-19T04:18:04.749Z,-6.50
2019-01-19T04:19:05.023Z,-6.50
2019-01-19T04:20:04.550Z,-6.50
2019-01-19T04:21:04.344Z,-6.50
2019-01-19T04:22:04.517Z,-6.50
2019-01-19T04:23:04.709Z,-6.50
2019-01-19T04:24:05.173Z,-6.60
2019-01-19T04:25:04.653Z,-6.60
2019-01-19T04:26:04.914Z,-6.50
2019-01-19T04:27:04.529Z,-6.60
2019-01-19T04:28:04.391Z,-6.60
2019-01-19T04:29:09.367Z,-6.60
2019-01-19T04:30:05.057Z,-6.60
2019-01-19T04:31:04.425Z,-6.60
2019-01-19T04:32:04.662Z,-6.60
2019-01-19T04:33:04.760Z,-6.60
2019-01-19T04:34:04.255Z,-6.60
2019-01-19T04:35:04.564Z,-6.60
2019-01-19T04:36:04.673Z,-6.60
2019-01-19T04:37:04.363Z,-6.60
2019-01-19T04:38:04.804Z,-6.60
2019-01-19T04:39:05.202Z,-6.60
2019-01-19T04:40:04.987Z,-6.60
2019-01-19T04:41:04.348Z,-6.60
2019-01-19T04:42:05.121Z,-6.60
2019-01-19T04:43:04.887Z,-6.60
2019-01-19T04:44:05.292Z,-6.60
2019-01-19T04:45:04.395Z,-6.60
2019-01-19T04:46:04.832Z,-6.60
2019-01-19T04:47:05.167Z,-6.60
2019-01-19T04:48:05.243Z,-6.60
2019-01-19T04:49:09.588Z,-6.60
2019-01-19T04:50:05.342Z,-6.60
2019-01-19T04:51:05.416Z,-6.60
2019-01-19T04:52:05.073Z,-6.60
2019-01-19T04:53:05.528Z,-6.60
2019-01-19T04:54:04.656Z,-6.60
2019-01-19T04:55:04.820Z,-6.60
2019-01-19T04:56:04.713Z,-6.60
2019-01-19T04:57:04.287Z,-6.60
2019-01-19T04:58:04.641Z,-6.60
2019-01-19T04:59:05.034Z,-6.60
2019-01-19T05:00:05.410Z,-6.60
2019-01-19T05:01:04.472Z,-6.60
2019-01-19T05:02:04.986Z,-6.60
2019-01-19T05:03:04.874Z,-6.70
2019-01-19T05:04:05.233Z,-6.70
2019-01-19T05:05:04.518Z,-6.70
2019-01-19T05:06:11.923Z,-6.70
2019-01-19T05:07:04.452Z,-6.70
2019-01-19T05:08:04.462Z,-6.70
2019-01-19T05:09:05.326Z,-6.70
2019-01-19T05:10:04.739Z,-6.70
2019-01-19T05:11:05.295Z,-6.70
2019-01-19T05:12:04.262Z,-6.80
2019-01-19T05:13:04.526Z,-6.80
2019-01-19T05:14:04.806Z,-6.70
2019-01-19T05:15:04.877Z,-6.80
2019-01-19T05:16:05.259Z,-6.80
2019-01-19T05:17:04.756Z,-6.80
2019-01-19T05:18:04.560Z,-6.70
2019-01-19T05:19:05.097Z,-6.80
2019-01-19T05:20:04.547Z,-6.70
2019-01-19T05:21:05.145Z,-6.70
2019-01-19T05:22:04.518Z,-6.80
2019-01-19T05:23:04.909Z,-6.70
2019-01-19T05:24:04.316Z,-6.80
2019-01-19T05:25:04.840Z,-6.80
2019-01-19T05:26:04.660Z,-6.80
2019-01-19T05:27:05.341Z,-6.80
2019-01-19T05:28:05.175Z,-6.80
2019-01-19T05:29:09.914Z,-6.80
2019-01-19T05:30:04.621Z,-6.80
2019-01-19T05:31:05.219Z,-6.80
2019-01-19T05:32:05.259Z,-6.80
2019-01-19T05:33:04.919Z,-6.80
2019-01-19T05:34:05.188Z,-6.80
2019-01-19T05:35:05.529Z,-6.80
2019-01-19T05:36:04.930Z,-6.80
2019-01-19T05:37:05.341Z,-6.80
2019-01-19T05:38:04.941Z,-6.80
2019-01-19T05:39:04.869Z,-6.80
2019-01-19T05:40:04.643Z,-6.80
2019-01-19T05:41:05.212Z,-6.80
2019-01-19T05:42:04.699Z,-6.80
2019-01-19T05:43:05.018Z,-6.80
2019-01-19T05:44:04.362Z,-6.80
2019-01-19T05:45:04.787Z,-6.80
2019-01-19T05:46:04.565Z,-6.80
2019-01-19T05:47:04.256Z,-6.80
2019-01-19T05:48:04.390Z,-6.80
2019-01-19T05:49:04.447Z,-6.80
2019-01-19T05:50:04.819Z,-6.80
2019-01-19T05:51:04.209Z,-6.80
2019-01-19T05:52:04.638Z,-6.80
2019-01-19T05:53:04.979Z,-6.80
2019-01-19T05:54:10.368Z,-6.80
2019-01-19T05:55:04.884Z,-6.90
2019-01-19T05:56:04.476Z,-6.90
2019-01-19T05:57:04.748Z,-6.90
2019-01-19T05:58:04.772Z,-6.90
2019-01-19T05:59:04.927Z,-6.90
2019-01-19T06:00:04.245Z,-6.90
2019-01-19T06:01:04.545Z,-6.90
2019-01-19T06:02:04.649Z,-6.90
2019-01-19T06:03:04.911Z,-6.90
2019-01-19T06:04:05.299Z,-6.90
2019-01-19T06:05:04.448Z,-6.90
2019-01-19T06:06:05.007Z,-6.90
2019-01-19T06:07:04.300Z,-6.90
2019-01-19T06:08:04.526Z,-6.90
2019-01-19T06:09:04.541Z,-6.90
2019-01-19T06:10:04.674Z,-7.00
2019-01-19T06:11:05.270Z,-7.00
2019-01-19T06:12:04.692Z,-7.00
2019-01-19T06:13:04.534Z,-7.00
2019-01-19T06:14:04.497Z,-7.00
2019-01-19T06:15:04.705Z,-7.00
2019-01-19T06:16:04.925Z,-7.00
2019-01-19T06:17:04.556Z,-7.00
2019-01-19T06:18:04.578Z,-7.00
2019-01-19T06:19:04.387Z,-7.00
2019-01-19T06:20:04.440Z,-7.00
2019-01-19T06:21:04.830Z,-7.00
2019-01-19T06:22:04.972Z,-7.10
2019-01-19T06:23:04.515Z,-7.10
2019-01-19T06:24:04.981Z,-7.10
2019-01-19T06:25:04.813Z,-7.10
2019-01-19T06:26:05.067Z,-7.10
2019-01-19T06:27:05.327Z,-7.10
2019-01-19T06:28:04.946Z,-7.10
2019-01-19T06:29:10.218Z,-7.10
2019-01-19T06:30:04.715Z,-7.10
2019-01-19T06:31:04.817Z,-7.10
2019-01-19T06:32:04.523Z,-7.10
2019-01-19T06:33:05.218Z,-7.20
2019-01-19T06:34:04.318Z,-7.20
2019-01-19T06:35:05.155Z,-7.20
2019-01-19T06:36:05.517Z,-7.20
2019-01-19T06:37:04.554Z,-7.20
2019-01-19T06:38:05.358Z,-7.20
2019-01-19T06:39:05.099Z,-7.20
2019-01-19T06:40:04.854Z,-7.20
2019-01-19T06:41:05.407Z,-7.20
2019-01-19T06:42:04.824Z,-7.20
2019-01-19T06:43:05.419Z,-7.20
2019-01-19T06:44:04.808Z,-7.20
2019-01-19T06:45:05.120Z,-7.20
2019-01-19T06:46:04.273Z,-7.20
2019-01-19T06:47:04.522Z,-7.30
2019-01-19T06:48:05.028Z,-7.30
2019-01-19T06:49:10.345Z,-7.30
2019-01-19T06:50:04.965Z,-7.30
2019-01-19T06:51:05.289Z,-7.30
2019-01-19T06:52:05.387Z,-7.30
2019-01-19T06:53:04.719Z,-7.30
2019-01-19T06:54:05.239Z,-7.30
2019-01-19T06:55:05.266Z,-7.30
2019-01-19T06:56:04.536Z,-7.30
2019-01-19T06:57:04.874Z,-7.40
2019-01-19T06:58:05.023Z,-7.30
2019-01-19T06:59:04.669Z,-7.40
2019-01-19T07:00:04.821Z,-7.30
2019-01-19T07:01:05.063Z,-7.40
2019-01-19T07:02:05.530Z,-7.40
2019-01-19T07:03:04.518Z,-7.40
2019-01-19T07:04:04.899Z,-7.40
2019-01-19T07:05:04.961Z,-7.40
2019-01-19T07:06:05.096Z,-7.40
2019-01-19T07:07:04.810Z,-7.30
2019-01-19T07:08:04.983Z,-7.40
2019-01-19T07:09:04.369Z,-7.40
2019-01-19T07:10:04.988Z,-7.40
2019-01-19T07:11:04.840Z,-7.40
2019-01-19T07:12:04.262Z,-7.40
2019-01-19T07:13:04.709Z,-7.40
2019-01-19T07:14:05.004Z,-7.40
2019-01-19T07:15:05.263Z,-7.40
2019-01-19T07:16:04.416Z,-7.40
2019-01-19T07:17:04.626Z,-7.40
2019-01-19T07:18:04.738Z,-7.40
2019-01-19T07:19:05.471Z,-7.40
2019-01-19T07:20:05.229Z,-7.40
2019-01-19T07:21:05.361Z,-7.40
2019-01-19T07:22:04.479Z,-7.40
2019-01-19T07:23:05.324Z,-7.40
2019-01-19T07:24:04.455Z,-7.40
2019-01-19T07:25:04.624Z,-7.30
2019-01-19T07:26:04.421Z,-7.30
2019-01-19T07:27:05.244Z,-7.30
2019-01-19T07:28:04.987Z,-7.30
2019-01-19T07:29:09.274Z,-7.30
2019-01-19T07:30:05.005Z,-7.30
2019-01-19T07:31:04.585Z,-7.30
2019-01-19T07:32:05.178Z,-7.30
2019-01-19T07:33:05.028Z,-7.30
2019-01-19T07:34:05.015Z,-7.30
2019-01-19T07:35:05.386Z,-7.30
2019-01-19T07:36:04.413Z,-7.20
2019-01-19T07:37:09.646Z,-7.20
2019-01-19T07:38:04.742Z,-7.20
2019-01-19T07:39:04.915Z,-7.20
2019-01-19T07:40:04.515Z,-7.20
2019-01-19T07:41:05.053Z,-7.20
2019-01-19T07:42:05.098Z,-7.10
2019-01-19T07:43:05.444Z,-7.10
2019-01-19T07:44:05.687Z,-7.10
2019-01-19T07:45:04.573Z,-7.10
2019-01-19T07:46:05.091Z,-7.10
2019-01-19T07:47:05.180Z,-7.10
2019-01-19T07:48:04.810Z,-7.00
2019-01-19T07:49:09.896Z,-7.00
2019-01-19T07:50:04.588Z,-7.00
2019-01-19T07:51:05.117Z,-7.00
2019-01-19T07:52:05.512Z,-6.90
2019-01-19T07:53:04.509Z,-6.90
2019-01-19T07:54:05.107Z,-6.90
2019-01-19T07:55:04.240Z,-6.90
2019-01-19T07:56:04.653Z,-6.90
2019-01-19T07:57:05.182Z,-6.80
2019-01-19T07:58:05.202Z,-6.80
2019-01-19T07:59:04.682Z,-6.80
2019-01-19T08:00:04.866Z,-6.80
2019-01-19T08:01:05.086Z,-6.80
2019-01-19T08:02:05.325Z,-6.70
2019-01-19T08:03:04.835Z,-6.70
2019-01-19T08:04:04.982Z,-6.70
2019-01-19T08:05:04.686Z,-6.70
2019-01-19T08:06:04.803Z,-6.70
2019-01-19T08:07:05.142Z,-6.60
2019-01-19T08:08:05.422Z,-6.60
2019-01-19T08:09:04.873Z,-6.60
2019-01-19T08:10:05.358Z,-6.60
2019-01-19T08:11:04.769Z,-6.50
2019-01-19T08:12:04.921Z,-6.50
2019-01-19T08:13:04.325Z,-6.50
2019-01-19T08:14:04.739Z,-6.50
2019-01-19T08:15:04.817Z,-6.50
2019-01-19T08:16:04.433Z,-6.40
2019-01-19T08:17:05.063Z,-6.40
2019-01-19T08:18:04.836Z,-6.40
2019-01-19T08:19:05.252Z,-6.30
2019-01-19T08:20:04.994Z,-6.30
2019-01-19T08:21:04.699Z,-6.30
2019-01-19T08:22:04.610Z,-6.30
2019-01-19T08:23:05.128Z,-6.20
2019-01-19T08:24:04.361Z,-6.20
2019-01-19T08:25:04.432Z,-6.20
2019-01-19T08:26:05.055Z,-6.20
2019-01-19T08:27:04.574Z,-6.10
2019-01-19T08:28:04.808Z,-6.10
2019-01-19T08:29:10.094Z,-6.10
2019-01-19T08:30:04.940Z,-6.10
2019-01-19T08:31:04.994Z,-6.00
2019-01-19T08:32:05.181Z,-6.00
2019-01-19T08:33:05.439Z,-6.00
2019-01-19T08:34:05.361Z,-6.00
2019-01-19T08:35:04.458Z,-6.00
2019-01-19T08:36:04.423Z,-5.90
2019-01-19T08:37:04.522Z,-5.90
2019-01-19T08:38:04.515Z,-5.90
2019-01-19T08:39:05.203Z,-5.90
2019-01-19T08:40:05.145Z,-5.80
2019-01-19T08:41:04.610Z,-5.80
2019-01-19T08:42:05.383Z,-5.80
2019-01-19T08:43:04.498Z,-5.80
2019-01-19T08:44:05.445Z,-5.80
2019-01-19T08:45:04.932Z,-5.70
2019-01-19T08:46:05.117Z,-5.70
2019-01-19T08:47:04.651Z,-5.70
2019-01-19T08:48:04.695Z,-5.70
2019-01-19T08:49:04.688Z,-5.60
2019-01-19T08:50:05.450Z,-5.60
2019-01-19T08:51:04.997Z,-5.60
2019-01-19T08:52:04.806Z,-5.50
2019-01-19T08:53:05.067Z,-5.50
2019-01-19T08:54:04.820Z,-5.50
2019-01-19T08:55:05.057Z,-5.50
2019-01-19T08:56:05.054Z,-5.40
2019-01-19T08:57:04.777Z,-5.40
2019-01-19T08:58:04.824Z,-5.30
2019-01-19T08:59:04.565Z,-5.30
2019-01-19T09:00:04.654Z,-5.30
2019-01-19T09:01:05.073Z,-5.20
2019-01-19T09:02:05.094Z,-5.20
2019-01-19T09:03:04.452Z,-5.20
2019-01-19T09:04:04.463Z,-5.20
2019-01-19T09:05:04.791Z,-5.10
2019-01-19T09:06:05.081Z,-5.10
2019-01-19T09:07:04.544Z,-5.10
2019-01-19T09:08:04.422Z,-5.00
2019-01-19T09:09:05.093Z,-5.00
2019-01-19T09:10:04.379Z,-5.00
2019-01-19T09:11:04.460Z,-4.90
2019-01-19T09:12:05.264Z,-4.90
2019-01-19T09:13:04.422Z,-4.90
2019-01-19T09:14:04.763Z,-4.90
2019-01-19T09:15:05.023Z,-4.80
2019-01-19T09:16:04.264Z,-4.80
2019-01-19T09:17:04.544Z,-4.80
2019-01-19T09:18:04.891Z,-4.70
2019-01-19T09:19:05.289Z,-4.70
2019-01-19T09:20:04.496Z,-4.70
2019-01-19T09:21:04.767Z,-4.70
2019-01-19T09:22:05.527Z,-4.70
2019-01-19T09:23:05.024Z,-4.60
2019-01-19T09:24:04.598Z,-4.60
2019-01-19T09:25:04.824Z,-4.60
2019-01-19T09:26:04.973Z,-4.60
2019-01-19T09:27:05.275Z,-4.50
2019-01-19T09:28:04.544Z,-4.50
2019-01-19T09:29:09.221Z,-4.50
2019-01-19T09:30:04.887Z,-4.40
2019-01-19T09:31:05.115Z,-4.40
2019-01-19T09:32:04.221Z,-4.40
2019-01-19T09:33:04.569Z,-4.30
2019-01-19T09:34:04.899Z,-4.30
2019-01-19T09:35:05.146Z,-4.30
2019-01-19T09:36:05.332Z,-4.20
2019-01-19T09:37:04.700Z,-4.20
2019-01-19T09:38:05.199Z,-4.20
2019-01-19T09:39:05.255Z,-4.10
2019-01-19T09:40:04.580Z,-4.10
2019-01-19T09:41:05.153Z,-4.10
2019-01-19T09:42:04.581Z,-4.00
2019-01-19T09:43:04.577Z,-4.00
2019-01-19T09:44:05.486Z,-3.90
2019-01-19T09:45:04.650Z,-3.90
2019-01-19T09:46:04.911Z,-3.90
2019-01-19T09:47:05.293Z,-3.90
2019-01-19T09:48:04.265Z,-3.80
2019-01-19T09:49:05.152Z,-3.80
2019-01-19T09:50:04.969Z,-3.80
2019-01-19T09:51:04.560Z,-3.70
2019-01-19T09:52:05.115Z,-3.70
2019-01-19T09:53:10.482Z,-3.70
2019-01-19T09:54:05.175Z,-3.70
2019-01-19T09:55:05.538Z,-3.60
2019-01-19T09:56:04.661Z,-3.60
2019-01-19T09:57:05.007Z,-3.60
2019-01-19T09:58:04.477Z,-3.50
2019-01-19T09:59:04.507Z,-3.50
2019-01-19T10:00:05.562Z,-3.50
2019-01-19T10:01:04.413Z,-3.40
2019-01-19T10:02:05.060Z,-3.40
2019-01-19T10:03:05.278Z,-3.40
2019-01-19T10:04:04.872Z,-3.30
2019-01-19T10:05:04.849Z,-3.30
2019-01-19T10:06:05.324Z,-3.30
2019-01-19T10:07:04.494Z,-3.30
2019-01-19T10:08:04.967Z,-3.20
2019-01-19T10:09:05.706Z,-3.20
2019-01-19T10:10:04.400Z,-3.20
2019-01-19T10:11:04.691Z,-3.10
2019-01-19T10:12:04.886Z,-3.10
2019-01-19T10:13:05.328Z,-3.10
2019-01-19T10:14:04.363Z,-3.10
2019-01-19T10:15:05.267Z,-3.00
2019-01-19T10:16:04.446Z,-3.00
2019-01-19T10:17:04.434Z,-3.00
2019-01-19T10:18:04.539Z,-2.90
2019-01-19T10:19:04.989Z,-2.90
2019-01-19T10:20:04.375Z,-2.90
2019-01-19T10:21:04.785Z,-2.80
2019-01-19T10:22:05.358Z,-2.80
2019-01-19T10:23:04.885Z,-2.80
2019-01-19T10:24:04.267Z,-2.80
2019-01-19T10:25:04.680Z,-2.70
2019-01-19T10:26:04.738Z,-2.70
2019-01-19T10:27:05.092Z,-2.70
2019-01-19T10:28:05.441Z,-2.60
2019-01-19T10:29:09.484Z,-2.60
2019-01-19T10:30:05.056Z,-2.60
2019-01-19T10:31:04.442Z,-2.50
2019-01-19T10:32:04.755Z,-2.50
2019-01-19T10:33:05.244Z,-2.50
2019-01-19T10:34:04.559Z,-2.40
2019-01-19T10:35:04.306Z,-2.40
2019-01-19T10:36:04.359Z,-2.40
2019-01-19T10:37:04.874Z,-2.30
2019-01-19T10:38:05.047Z,-2.30
2019-01-19T10:39:05.264Z,-2.30
2019-01-19T10:40:04.568Z,-2.20
2019-01-19T10:41:04.701Z,-2.20
2019-01-19T10:42:05.100Z,-2.20
2019-01-19T10:43:04.538Z,-2.10
2019-01-19T10:44:04.666Z,-2.10
2019-01-19T10:45:04.937Z,-2.10
2019-01-19T10:46:05.390Z,-2.00
2019-01-19T10:47:04.977Z,-2.00
2019-01-19T10:48:05.374Z,-2.00
2019-01-19T10:49:04.575Z,-1.90
2019-01-19T10:50:04.597Z,-1.90
2019-01-19T10:51:04.732Z,-1.90
2019-01-19T10:52:04.889Z,-1.80
2019-01-19T10:53:04.599Z,-1.80
2019-01-19T10:54:05.111Z,-1.80
2019-01-19T10:55:04.518Z,-1.70
2019-01-19T10:56:04.589Z,-1.70
2019-01-19T10:57:04.871Z,-1.70
2019-01-19T10:58:05.393Z,-1.70
2019-01-19T10:59:04.827Z,-1.60
2019-01-19T11:00:04.829Z,-1.60
2019-01-19T11:01:05.240Z,-1.60
2019-01-19T11:02:04.853Z,-1.50
2019-01-19T11:03:05.300Z,-1.50
2019-01-19T11:04:04.308Z,-1.40
2019-01-19T11:05:04.525Z,-1.40
2019-01-19T11:06:05.308Z,-1.30
2019-01-19T11:07:04.558Z,-1.30
2019-01-19T11:08:04.867Z,-1.20
2019-01-19T11:09:05.260Z,-1.20
2019-01-19T11:10:05.213Z,-1.20
2019-01-19T11:11:04.924Z,-1.10
2019-01-19T11:12:04.736Z,-1.10
2019-01-19T11:13:05.072Z,-1.10
2019-01-19T11:14:05.243Z,-1.00
2019-01-19T11:15:05.208Z,-1.00
2019-01-19T11:16:04.931Z,-1.00
2019-01-19T11:17:05.316Z,-1.00
2019-01-19T11:18:04.683Z,-0.90
2019-01-19T11:19:05.135Z,-0.90
2019-01-19T11:20:05.075Z,-0.90
2019-01-19T11:21:05.292Z,-0.80
2019-01-19T11:22:04.454Z,-0.80
2019-01-19T11:23:04.330Z,-0.80
2019-01-19T11:24:04.616Z,-0.70
2019-01-19T11:25:05.045Z,-0.70
2019-01-19T11:26:04.311Z,-0.70
2019-01-19T11:27:04.491Z,-0.70
2019-01-19T11:28:04.870Z,-0.60
2019-01-19T11:29:10.441Z,-0.60
2019-01-19T11:30:05.204Z,-0.60
2019-01-19T11:31:05.287Z,-0.60
2019-01-19T11:32:05.188Z,-0.50
2019-01-19T11:33:04.760Z,-0.50
2019-01-19T11:34:05.088Z,-0.50
2019-01-19T11:35:05.310Z,-0.50
2019-01-19T11:36:05.157Z,-0.50
2019-01-19T11:37:04.337Z,-0.40
2019-01-19T11:38:11.598Z,-0.40
2019-01-19T11:39:04.777Z,-0.40
2019-01-19T11:40:05.253Z,-0.40
2019-01-19T11:41:04.345Z,-0.30
2019-01-19T11:42:04.668Z,-0.30
2019-01-19T11:43:04.893Z,-0.30
2019-01-19T11:44:04.991Z,-0.30
2019-01-19T11:45:04.717Z,-0.20
2019-01-19T11:46:05.029Z,-0.20
2019-01-19T11:47:05.067Z,-0.20
2019-01-19T11:48:04.643Z,-0.20
2019-01-19T11:49:05.065Z,-0.10
2019-01-19T11:50:04.324Z,-0.10
2019-01-19T11:51:04.653Z,-0.10
2019-01-19T11:52:04.717Z,0.00
2019-01-19T11:53:05.246Z,0.00
2019-01-19T11:54:04.325Z,0.00
2019-01-19T11:55:04.537Z,0.00
2019-01-19T11:56:11.908Z,0.00
2019-01-19T11:57:05.204Z,0.10
2019-01-19T11:58:05.336Z,0.10
2019-01-19T11:59:04.560Z,0.10
2019-01-19T12:00:04.579Z,0.10
2019-01-19T12:01:04.804Z,0.10
2019-01-19T12:02:04.606Z,0.10
2019-01-19T12:03:05.547Z,0.10
2019-01-19T12:04:04.487Z,0.10
2019-01-19T12:05:04.666Z,0.20
2019-01-19T12:06:05.042Z,0.20
2019-01-19T12:07:05.319Z,0.20
2019-01-19T12:08:04.803Z,0.20
2019-01-19T12:09:04.807Z,0.20
2019-01-19T12:10:05.011Z,0.20
2019-01-19T12:11:05.154Z,0.20
2019-01-19T12:12:05.194Z,0.30
2019-01-19T12:13:04.538Z,0.20
2019-01-19T12:14:04.951Z,0.30
2019-01-19T12:15:05.363Z,0.30
2019-01-19T12:16:05.352Z,0.30
2019-01-19T12:17:05.141Z,0.30
2019-01-19T12:18:04.365Z,0.30
2019-01-19T12:19:04.943Z,0.40
2019-01-19T12:20:05.501Z,0.40
2019-01-19T12:21:04.644Z,0.40
2019-01-19T12:22:04.627Z,0.40
2019-01-19T12:23:05.430Z,0.40
2019-01-19T12:24:05.603Z,0.50
2019-01-19T12:25:04.472Z,0.50
2019-01-19T12:26:05.094Z,0.50
2019-01-19T12:27:05.350Z,0.50
2019-01-19T12:28:05.093Z,0.50
2019-01-19T12:29:10.454Z,0.50
2019-01-19T12:30:04.969Z,0.60
2019-01-19T12:31:05.292Z,0.60
2019-01-19T12:32:04.446Z,0.60
2019-01-19T12:33:04.591Z,0.60
2019-01-19T12:34:04.373Z,0.60
2019-01-19T12:35:04.570Z,0.60
2019-01-19T12:36:04.794Z,0.70
2019-01-19T12:37:05.201Z,0.70
2019-01-19T12:38:04.392Z,0.70
2019-01-19T12:39:04.811Z,0.70
2019-01-19T12:40:05.089Z,0.70
2019-01-19T12:41:04.743Z,0.70
2019-01-19T12:42:04.883Z,0.80
2019-01-19T12:43:04.407Z,0.70
2019-01-19T12:44:04.760Z,0.80
2019-01-19T12:45:05.093Z,0.80
2019-01-19T12:46:05.100Z,0.80
2019-01-19T12:47:04.398Z,0.80
2019-01-19T12:48:05.123Z,0.80
2019-01-19T12:49:05.207Z,0.80
2019-01-19T12:50:04.445Z,0.80
2019-01-19T12:51:05.133Z,0.80
2019-01-19T12:52:05.295Z,0.90
2019-01-19T12:53:04.707Z,0.90
2019-01-19T12:54:04.395Z,0.90